sensor_id;sensor_type;location;lat;lon;timestamp;pressure;altitude;pressure_sealevel;temperature
14666;BMP280;7420;53.574;10.040;2022-11-18T00:00:43;100264.16;;;1.97
14666;BMP280;7420;53.574;10.040;2022-11-18T00:03:08;100270.72;;;1.93
14666;BMP280;7420;53.574;10.040;2022-11-18T00:05:34;100274.00;;;1.95
14666;BMP280;7420;53.574;10.040;2022-11-18T00:07:59;100271.38;;;2.03
14666;BMP280;7420;53.574;10.040;2022-11-18T00:10:24;100280.38;;;2.00
14666;BMP280;7420;53.574;10.040;2022-11-18T00:12:49;100275.28;;;1.91
14666;BMP280;7420;53.574;10.040;2022-11-18T00:15:33;100277.91;;;1.91
14666;BMP280;7420;53.574;10.040;2022-11-18T00:17:58;100279.56;;;1.92
14666;BMP280;7420;53.574;10.040;2022-11-18T00:20:24;100284.47;;;1.95
14666;BMP280;7420;53.574;10.040;2022-11-18T00:22:49;100280.53;;;1.91
14666;BMP280;7420;53.574;10.040;2022-11-18T00:25:14;100276.47;;;1.88
14666;BMP280;7420;53.574;10.040;2022-11-18T00:27:40;100285.78;;;1.99
14666;BMP280;7420;53.574;10.040;2022-11-18T00:30:05;100293.00;;;2.05
14666;BMP280;7420;53.574;10.040;2022-11-18T00:32:30;100284.81;;;1.92
14666;BMP280;7420;53.574;10.040;2022-11-18T00:34:56;100283.81;;;2.01
14666;BMP280;7420;53.574;10.040;2022-11-18T00:37:21;100291.53;;;1.86
14666;BMP280;7420;53.574;10.040;2022-11-18T00:39:46;100291.34;;;1.88
14666;BMP280;7420;53.574;10.040;2022-11-18T00:42:11;100288.06;;;1.86
14666;BMP280;7420;53.574;10.040;2022-11-18T00:44:55;100289.56;;;1.88
14666;BMP280;7420;53.574;10.040;2022-11-18T00:47:20;100292.97;;;1.81
14666;BMP280;7420;53.574;10.040;2022-11-18T00:49:46;100300.53;;;1.76
14666;BMP280;7420;53.574;10.040;2022-11-18T00:52:11;100302.78;;;1.79
14666;BMP280;7420;53.574;10.040;2022-11-18T00:54:36;100302.66;;;1.80
14666;BMP280;7420;53.574;10.040;2022-11-18T00:57:01;100307.91;;;1.80
14666;BMP280;7420;53.574;10.040;2022-11-18T00:59:28;100303.31;;;1.82
14666;BMP280;7420;53.574;10.040;2022-11-18T01:01:53;100305.13;;;1.74
14666;BMP280;7420;53.574;10.040;2022-11-18T01:04:18;100310.16;;;1.67
14666;BMP280;7420;53.574;10.040;2022-11-18T01:06:44;100308.69;;;1.81
14666;BMP280;7420;53.574;10.040;2022-11-18T01:09:09;100324.25;;;1.66
14666;BMP280;7420;53.574;10.040;2022-11-18T01:11:34;100316.38;;;1.66
14666;BMP280;7420;53.574;10.040;2022-11-18T01:14:18;100323.78;;;1.71
14666;BMP280;7420;53.574;10.040;2022-11-18T01:16:43;100327.38;;;1.70
14666;BMP280;7420;53.574;10.040;2022-11-18T01:19:09;100314.72;;;1.57
14666;BMP280;7420;53.574;10.040;2022-11-18T01:21:34;100324.72;;;1.62
14666;BMP280;7420;53.574;10.040;2022-11-18T01:23:59;100329.66;;;1.65
14666;BMP280;7420;53.574;10.040;2022-11-18T01:26:24;100326.50;;;1.61
14666;BMP280;7420;53.574;10.040;2022-11-18T01:28:53;100324.38;;;1.57
14666;BMP280;7420;53.574;10.040;2022-11-18T01:31:18;100324.38;;;1.57
14666;BMP280;7420;53.574;10.040;2022-11-18T01:33:44;100327.66;;;1.51
14666;BMP280;7420;53.574;10.040;2022-11-18T01:36:27;100334.84;;;1.49
14666;BMP280;7420;53.574;10.040;2022-11-18T01:38:53;100329.78;;;1.47
14666;BMP280;7420;53.574;10.040;2022-11-18T01:41:19;100331.63;;;1.63
14666;BMP280;7420;53.574;10.040;2022-11-18T01:43:52;100335.50;;;1.51
14666;BMP280;7420;53.574;10.040;2022-11-18T01:46:17;100328.47;;;1.51
14666;BMP280;7420;53.574;10.040;2022-11-18T01:48:43;100339.25;;;1.40
14666;BMP280;7420;53.574;10.040;2022-11-18T01:51:14;100344.00;;;1.45
14666;BMP280;7420;53.574;10.040;2022-11-18T01:53:49;100335.16;;;1.46
14666;BMP280;7420;53.574;10.040;2022-11-18T01:56:16;100344.63;;;1.39
14666;BMP280;7420;53.574;10.040;2022-11-18T01:58:47;100349.72;;;1.40
14666;BMP280;7420;53.574;10.040;2022-11-18T02:01:14;100354.78;;;1.42
14666;BMP280;7420;53.574;10.040;2022-11-18T02:03:39;100353.94;;;1.33
14666;BMP280;7420;53.574;10.040;2022-11-18T02:06:05;100356.44;;;1.35
14666;BMP280;7420;53.574;10.040;2022-11-18T02:08:31;100363.78;;;1.39
14666;BMP280;7420;53.574;10.040;2022-11-18T02:10:56;100357.75;;;1.47
14666;BMP280;7420;53.574;10.040;2022-11-18T02:13:22;100359.56;;;1.46
14666;BMP280;7420;53.574;10.040;2022-11-18T02:15:54;100354.81;;;1.50
14666;BMP280;7420;53.574;10.040;2022-11-18T02:18:27;100358.28;;;1.50
14666;BMP280;7420;53.574;10.040;2022-11-18T02:20:55;100356.81;;;1.56
14666;BMP280;7420;53.574;10.040;2022-11-18T02:32:12;100366.25;;;1.33
14666;BMP280;7420;53.574;10.040;2022-11-18T02:36:42;100370.19;;;1.45
14666;BMP280;7420;53.574;10.040;2022-11-18T02:39:19;100366.59;;;1.46
14666;BMP280;7420;53.574;10.040;2022-11-18T02:41:46;100357.41;;;1.42
14666;BMP280;7420;53.574;10.040;2022-11-18T02:44:15;100367.88;;;1.42
14666;BMP280;7420;53.574;10.040;2022-11-18T02:46:42;100362.69;;;1.50
14666;BMP280;7420;53.574;10.040;2022-11-18T02:49:11;100364.38;;;1.67
14666;BMP280;7420;53.574;10.040;2022-11-18T02:51:37;100364.59;;;1.40
14666;BMP280;7420;53.574;10.040;2022-11-18T02:54:04;100372.47;;;1.40
14666;BMP280;7420;53.574;10.040;2022-11-18T02:56:31;100368.22;;;1.47
14666;BMP280;7420;53.574;10.040;2022-11-18T02:58:57;100381.84;;;1.58
14666;BMP280;7420;53.574;10.040;2022-11-18T03:01:25;100379.03;;;1.44
14666;BMP280;7420;53.574;10.040;2022-11-18T03:03:52;100380.97;;;1.42
14666;BMP280;7420;53.574;10.040;2022-11-18T03:06:27;100384.44;;;1.42
14666;BMP280;7420;53.574;10.040;2022-11-18T03:09:17;100387.84;;;1.43
14666;BMP280;7420;53.574;10.040;2022-11-18T03:11:45;100382.81;;;1.49
14666;BMP280;7420;53.574;10.040;2022-11-18T03:16:55;100383.78;;;1.40
14666;BMP280;7420;53.574;10.040;2022-11-18T03:22:10;100399.63;;;1.39
14666;BMP280;7420;53.574;10.040;2022-11-18T03:24:39;100399.31;;;1.34
14666;BMP280;7420;53.574;10.040;2022-11-18T03:27:15;100395.72;;;1.43
14666;BMP280;7420;53.574;10.040;2022-11-18T03:29:53;100392.09;;;1.36
14666;BMP280;7420;53.574;10.040;2022-11-18T03:32:22;100402.06;;;1.32
14666;BMP280;7420;53.574;10.040;2022-11-18T03:34:49;100402.31;;;1.55
14666;BMP280;7420;53.574;10.040;2022-11-18T03:37:16;100401.63;;;1.37
14666;BMP280;7420;53.574;10.040;2022-11-18T03:39:44;100406.06;;;1.44
14666;BMP280;7420;53.574;10.040;2022-11-18T03:42:15;100406.19;;;1.35
14666;BMP280;7420;53.574;10.040;2022-11-18T03:44:45;100405.19;;;1.36
14666;BMP280;7420;53.574;10.040;2022-11-18T03:47:20;100410.75;;;1.41
14666;BMP280;7420;53.574;10.040;2022-11-18T03:49:49;100411.72;;;1.32
14666;BMP280;7420;53.574;10.040;2022-11-18T03:52:17;100414.72;;;1.37
14666;BMP280;7420;53.574;10.040;2022-11-18T03:54:45;100408.13;;;1.33
14666;BMP280;7420;53.574;10.040;2022-11-18T03:57:12;100414.34;;;1.32
14666;BMP280;7420;53.574;10.040;2022-11-18T03:59:40;100414.00;;;1.27
14666;BMP280;7420;53.574;10.040;2022-11-18T04:02:10;100412.66;;;1.23
14666;BMP280;7420;53.574;10.040;2022-11-18T04:04:36;100413.38;;;1.33
14666;BMP280;7420;53.574;10.040;2022-11-18T04:07:03;100431.06;;;1.39
14666;BMP280;7420;53.574;10.040;2022-11-18T04:09:34;100428.13;;;1.42
14666;BMP280;7420;53.574;10.040;2022-11-18T04:12:03;100432.28;;;1.19
14666;BMP280;7420;53.574;10.040;2022-11-18T04:14:39;100436.53;;;1.20
14666;BMP280;7420;53.574;10.040;2022-11-18T04:17:10;100433.66;;;1.31
14666;BMP280;7420;53.574;10.040;2022-11-18T04:19:35;100439.81;;;1.22
14666;BMP280;7420;53.574;10.040;2022-11-18T04:22:01;100445.19;;;1.20
14666;BMP280;7420;53.574;10.040;2022-11-18T04:24:26;100439.97;;;1.20
14666;BMP280;7420;53.574;10.040;2022-11-18T04:26:51;100458.81;;;1.24
14666;BMP280;7420;53.574;10.040;2022-11-18T04:29:17;100449.38;;;1.31
14666;BMP280;7420;53.574;10.040;2022-11-18T04:31:42;100457.63;;;1.18
14666;BMP280;7420;53.574;10.040;2022-11-18T04:34:07;100456.50;;;1.21
14666;BMP280;7420;53.574;10.040;2022-11-18T04:36:32;100462.41;;;1.23
14666;BMP280;7420;53.574;10.040;2022-11-18T04:38:58;100464.06;;;1.24
14666;BMP280;7420;53.574;10.040;2022-11-18T04:41:23;100451.16;;;1.30
14666;BMP280;7420;53.574;10.040;2022-11-18T04:44:08;100452.47;;;1.34
14666;BMP280;7420;53.574;10.040;2022-11-18T04:46:37;100455.56;;;1.30
14666;BMP280;7420;53.574;10.040;2022-11-18T04:49:02;100462.97;;;1.09
14666;BMP280;7420;53.574;10.040;2022-11-18T04:51:27;100467.97;;;1.20
14666;BMP280;7420;53.574;10.040;2022-11-18T04:53:53;100471.50;;;1.11
14666;BMP280;7420;53.574;10.040;2022-11-18T04:56:18;100473.13;;;1.12
14666;BMP280;7420;53.574;10.040;2022-11-18T04:58:43;100469.72;;;1.19
14666;BMP280;7420;53.574;10.040;2022-11-18T05:01:08;100481.00;;;1.12
14666;BMP280;7420;53.574;10.040;2022-11-18T05:03:34;100480.19;;;1.37
14666;BMP280;7420;53.574;10.040;2022-11-18T05:06:00;100476.78;;;1.19
14666;BMP280;7420;53.574;10.040;2022-11-18T05:08:25;100485.38;;;1.29
14666;BMP280;7420;53.574;10.040;2022-11-18T05:10:51;100481.84;;;1.20
14666;BMP280;7420;53.574;10.040;2022-11-18T05:13:36;100490.84;;;1.18
14666;BMP280;7420;53.574;10.040;2022-11-18T05:16:01;100499.41;;;1.03
14666;BMP280;7420;53.574;10.040;2022-11-18T05:18:26;100500.47;;;1.10
14666;BMP280;7420;53.574;10.040;2022-11-18T05:20:51;100504.91;;;1.17
14666;BMP280;7420;53.574;10.040;2022-11-18T05:23:17;100509.72;;;1.04
14666;BMP280;7420;53.574;10.040;2022-11-18T05:25:42;100493.03;;;1.05
14666;BMP280;7420;53.574;10.040;2022-11-18T05:28:07;100506.97;;;1.06
14666;BMP280;7420;53.574;10.040;2022-11-18T05:30:32;100505.25;;;0.97
14666;BMP280;7420;53.574;10.040;2022-11-18T05:32:58;100514.66;;;1.07
14666;BMP280;7420;53.574;10.040;2022-11-18T05:35:23;100514.22;;;1.12
14666;BMP280;7420;53.574;10.040;2022-11-18T05:37:48;100516.97;;;1.10
14666;BMP280;7420;53.574;10.040;2022-11-18T05:40:14;100516.22;;;1.00
14666;BMP280;7420;53.574;10.040;2022-11-18T05:42:39;100532.09;;;0.99
14666;BMP280;7420;53.574;10.040;2022-11-18T05:45:23;100532.38;;;1.13
14666;BMP280;7420;53.574;10.040;2022-11-18T05:47:48;100537.16;;;1.00
14666;BMP280;7420;53.574;10.040;2022-11-18T05:50:27;100534.88;;;0.97
14666;BMP280;7420;53.574;10.040;2022-11-18T05:52:53;100541.44;;;1.01
14666;BMP280;7420;53.574;10.040;2022-11-18T05:55:18;100532.41;;;0.96
14666;BMP280;7420;53.574;10.040;2022-11-18T05:57:44;100546.84;;;1.00
14666;BMP280;7420;53.574;10.040;2022-11-18T06:00:10;100546.53;;;1.03
14666;BMP280;7420;53.574;10.040;2022-11-18T06:02:35;100546.72;;;1.09
14666;BMP280;7420;53.574;10.040;2022-11-18T06:05:01;100548.03;;;0.88
14666;BMP280;7420;53.574;10.040;2022-11-18T06:07:28;100553.56;;;0.85
14666;BMP280;7420;53.574;10.040;2022-11-18T06:09:57;100558.38;;;0.89
14666;BMP280;7420;53.574;10.040;2022-11-18T06:12:28;100557.59;;;0.97
14666;BMP280;7420;53.574;10.040;2022-11-18T06:15:11;100557.81;;;0.86
14666;BMP280;7420;53.574;10.040;2022-11-18T06:17:44;100559.53;;;0.95
14666;BMP280;7420;53.574;10.040;2022-11-18T06:20:10;100559.63;;;1.03
14666;BMP280;7420;53.574;10.040;2022-11-18T06:22:36;100558.13;;;1.00
14666;BMP280;7420;53.574;10.040;2022-11-18T06:25:01;100562.34;;;0.93
14666;BMP280;7420;53.574;10.040;2022-11-18T06:27:27;100572.25;;;0.90
14666;BMP280;7420;53.574;10.040;2022-11-18T06:29:52;100574.44;;;0.94
14666;BMP280;7420;53.574;10.040;2022-11-18T06:32:17;100581.06;;;1.06
14666;BMP280;7420;53.574;10.040;2022-11-18T06:34:43;100584.06;;;0.94
14666;BMP280;7420;53.574;10.040;2022-11-18T06:37:12;100592.81;;;1.02
14666;BMP280;7420;53.574;10.040;2022-11-18T06:39:37;100591.72;;;0.87
14666;BMP280;7420;53.574;10.040;2022-11-18T06:42:03;100590.06;;;0.86
14666;BMP280;7420;53.574;10.040;2022-11-18T06:44:28;100598.69;;;0.96
14666;BMP280;7420;53.574;10.040;2022-11-18T06:46:53;100609.75;;;0.90
14666;BMP280;7420;53.574;10.040;2022-11-18T06:49:22;100603.56;;;0.99
14666;BMP280;7420;53.574;10.040;2022-11-18T06:51:47;100607.25;;;0.89
14666;BMP280;7420;53.574;10.040;2022-11-18T06:54:13;100603.06;;;0.96
14666;BMP280;7420;53.574;10.040;2022-11-18T06:56:38;100611.09;;;0.94
14666;BMP280;7420;53.574;10.040;2022-11-18T06:59:03;100615.66;;;0.92
14666;BMP280;7420;53.574;10.040;2022-11-18T07:01:29;100609.88;;;0.89
14666;BMP280;7420;53.574;10.040;2022-11-18T07:03:56;100614.81;;;0.92
14666;BMP280;7420;53.574;10.040;2022-11-18T07:06:23;100630.13;;;0.87
14666;BMP280;7420;53.574;10.040;2022-11-18T07:08:48;100627.00;;;0.83
14666;BMP280;7420;53.574;10.040;2022-11-18T07:11:15;100632.91;;;0.85
14666;BMP280;7420;53.574;10.040;2022-11-18T07:13:41;100638.94;;;0.86
14666;BMP280;7420;53.574;10.040;2022-11-18T07:16:08;100637.56;;;0.91
14666;BMP280;7420;53.574;10.040;2022-11-18T07:18:34;100648.44;;;1.04
14666;BMP280;7420;53.574;10.040;2022-11-18T07:21:00;100645.47;;;0.99
14666;BMP280;7420;53.574;10.040;2022-11-18T07:23:27;100647.47;;;0.88
14666;BMP280;7420;53.574;10.040;2022-11-18T07:25:53;100645.91;;;1.12
14666;BMP280;7420;53.574;10.040;2022-11-18T07:28:18;100644.34;;;1.19
14666;BMP280;7420;53.574;10.040;2022-11-18T07:30:43;100660.56;;;1.40
14666;BMP280;7420;53.574;10.040;2022-11-18T07:33:09;100663.25;;;1.30
14666;BMP280;7420;53.574;10.040;2022-11-18T07:35:34;100648.53;;;0.95
14666;BMP280;7420;53.574;10.040;2022-11-18T07:37:59;100661.41;;;1.06
14666;BMP280;7420;53.574;10.040;2022-11-18T07:40:24;100666.78;;;1.04
14666;BMP280;7420;53.574;10.040;2022-11-18T07:42:50;100672.75;;;0.97
14666;BMP280;7420;53.574;10.040;2022-11-18T07:45:15;100672.56;;;0.90
14666;BMP280;7420;53.574;10.040;2022-11-18T07:47:40;100675.00;;;0.92
14666;BMP280;7420;53.574;10.040;2022-11-18T07:50:05;100684.50;;;1.10
14666;BMP280;7420;53.574;10.040;2022-11-18T07:52:31;100695.53;;;1.13
14666;BMP280;7420;53.574;10.040;2022-11-18T07:54:56;100692.97;;;1.04
14666;BMP280;7420;53.574;10.040;2022-11-18T07:57:21;100694.19;;;0.83
14666;BMP280;7420;53.574;10.040;2022-11-18T07:59:46;100708.50;;;0.88
14666;BMP280;7420;53.574;10.040;2022-11-18T08:02:12;100711.94;;;0.89
14666;BMP280;7420;53.574;10.040;2022-11-18T08:04:37;100708.13;;;0.83
14666;BMP280;7420;53.574;10.040;2022-11-18T08:07:02;100718.00;;;0.89
14666;BMP280;7420;53.574;10.040;2022-11-18T08:09:27;100712.00;;;0.79
14666;BMP280;7420;53.574;10.040;2022-11-18T08:11:53;100719.28;;;1.03
14666;BMP280;7420;53.574;10.040;2022-11-18T08:14:18;100717.09;;;0.98
14666;BMP280;7420;53.574;10.040;2022-11-18T08:16:43;100718.81;;;0.90
14666;BMP280;7420;53.574;10.040;2022-11-18T08:19:09;100726.09;;;0.96
14666;BMP280;7420;53.574;10.040;2022-11-18T08:21:34;100729.34;;;0.80
14666;BMP280;7420;53.574;10.040;2022-11-18T08:23:59;100726.53;;;0.91
14666;BMP280;7420;53.574;10.040;2022-11-18T08:26:25;100728.63;;;1.05
14666;BMP280;7420;53.574;10.040;2022-11-18T08:28:50;100723.56;;;1.21
14666;BMP280;7420;53.574;10.040;2022-11-18T08:31:17;100733.56;;;1.08
14666;BMP280;7420;53.574;10.040;2022-11-18T08:33:42;100730.88;;;1.00
14666;BMP280;7420;53.574;10.040;2022-11-18T08:36:08;100730.34;;;0.97
14666;BMP280;7420;53.574;10.040;2022-11-18T08:38:34;100729.03;;;1.10
14666;BMP280;7420;53.574;10.040;2022-11-18T08:40:59;100739.50;;;1.10
14666;BMP280;7420;53.574;10.040;2022-11-18T08:43:24;100742.69;;;1.04
14666;BMP280;7420;53.574;10.040;2022-11-18T08:45:50;100743.22;;;0.90
14666;BMP280;7420;53.574;10.040;2022-11-18T08:48:15;100741.03;;;1.03
14666;BMP280;7420;53.574;10.040;2022-11-18T08:50:40;100744.03;;;1.08
14666;BMP280;7420;53.574;10.040;2022-11-18T08:53:05;100753.13;;;1.13
14666;BMP280;7420;53.574;10.040;2022-11-18T08:55:31;100752.06;;;1.07
14666;BMP280;7420;53.574;10.040;2022-11-18T08:57:56;100758.34;;;0.96
14666;BMP280;7420;53.574;10.040;2022-11-18T09:00:21;100756.84;;;1.11
14666;BMP280;7420;53.574;10.040;2022-11-18T09:02:47;100762.09;;;1.11
14666;BMP280;7420;53.574;10.040;2022-11-18T09:05:12;100771.88;;;1.09
14666;BMP280;7420;53.574;10.040;2022-11-18T09:07:37;100773.69;;;1.09
14666;BMP280;7420;53.574;10.040;2022-11-18T09:10:02;100773.78;;;1.16
14666;BMP280;7420;53.574;10.040;2022-11-18T09:12:28;100777.69;;;1.03
14666;BMP280;7420;53.574;10.040;2022-11-18T09:14:53;100771.75;;;1.11
14666;BMP280;7420;53.574;10.040;2022-11-18T09:17:18;100776.75;;;1.21
14666;BMP280;7420;53.574;10.040;2022-11-18T09:19:43;100782.84;;;1.22
14666;BMP280;7420;53.574;10.040;2022-11-18T09:22:09;100785.53;;;1.30
14666;BMP280;7420;53.574;10.040;2022-11-18T09:24:34;100778.28;;;1.41
14666;BMP280;7420;53.574;10.040;2022-11-18T09:27:04;100799.91;;;1.26
14666;BMP280;7420;53.574;10.040;2022-11-18T09:29:29;100792.72;;;1.28
14666;BMP280;7420;53.574;10.040;2022-11-18T09:31:54;100798.00;;;1.18
14666;BMP280;7420;53.574;10.040;2022-11-18T09:34:20;100802.72;;;1.15
14666;BMP280;7420;53.574;10.040;2022-11-18T09:36:45;100808.78;;;1.15
14666;BMP280;7420;53.574;10.040;2022-11-18T09:39:11;100812.03;;;1.27
14666;BMP280;7420;53.574;10.040;2022-11-18T09:49:25;100814.13;;;1.41
14666;BMP280;7420;53.574;10.040;2022-11-18T09:51:51;100829.84;;;1.41
14666;BMP280;7420;53.574;10.040;2022-11-18T09:56:44;100833.53;;;1.65
14666;BMP280;7420;53.574;10.040;2022-11-18T09:59:10;100835.56;;;1.54
14666;BMP280;7420;53.574;10.040;2022-11-18T10:01:36;100834.97;;;1.60
14666;BMP280;7420;53.574;10.040;2022-11-18T10:04:01;100830.31;;;1.54
14666;BMP280;7420;53.574;10.040;2022-11-18T10:06:27;100830.59;;;1.51
14666;BMP280;7420;53.574;10.040;2022-11-18T10:11:44;100837.19;;;1.55
14666;BMP280;7420;53.574;10.040;2022-11-18T10:19:33;100843.31;;;1.73
14666;BMP280;7420;53.574;10.040;2022-11-18T10:22:17;100852.47;;;1.77
14666;BMP280;7420;53.574;10.040;2022-11-18T10:24:56;100848.84;;;1.70
14666;BMP280;7420;53.574;10.040;2022-11-18T10:27:44;100855.47;;;1.82
14666;BMP280;7420;53.574;10.040;2022-11-18T10:30:11;100860.38;;;1.94
14666;BMP280;7420;53.574;10.040;2022-11-18T10:32:54;100853.84;;;1.98
14666;BMP280;7420;53.574;10.040;2022-11-18T10:38:01;100871.16;;;1.91
14666;BMP280;7420;53.574;10.040;2022-11-18T10:40:27;100860.38;;;1.94
14666;BMP280;7420;53.574;10.040;2022-11-18T10:42:52;100857.00;;;2.02
14666;BMP280;7420;53.574;10.040;2022-11-18T10:47:59;100870.78;;;2.04
14666;BMP280;7420;53.574;10.040;2022-11-18T10:50:27;100870.19;;;2.10
14666;BMP280;7420;53.574;10.040;2022-11-18T10:52:52;100873.84;;;1.99
14666;BMP280;7420;53.574;10.040;2022-11-18T10:55:22;100872.06;;;2.00
14666;BMP280;7420;53.574;10.040;2022-11-18T10:57:49;100873.91;;;2.07
14666;BMP280;7420;53.574;10.040;2022-11-18T11:00:34;100874.81;;;1.98
14666;BMP280;7420;53.574;10.040;2022-11-18T11:03:00;100878.28;;;1.99
14666;BMP280;7420;53.574;10.040;2022-11-18T11:05:37;100868.88;;;1.96
14666;BMP280;7420;53.574;10.040;2022-11-18T11:08:03;100885.47;;;1.97
14666;BMP280;7420;53.574;10.040;2022-11-18T11:10:28;100889.81;;;2.06
14666;BMP280;7420;53.574;10.040;2022-11-18T11:12:55;100883.28;;;2.10
14666;BMP280;7420;53.574;10.040;2022-11-18T11:17:57;100888.00;;;1.89
14666;BMP280;7420;53.574;10.040;2022-11-18T11:20:42;100907.69;;;1.93
14666;BMP280;7420;53.574;10.040;2022-11-18T11:23:08;100885.00;;;1.84
14666;BMP280;7420;53.574;10.040;2022-11-18T11:30:47;100914.88;;;1.91
14666;BMP280;7420;53.574;10.040;2022-11-18T11:33:25;100905.16;;;1.83
14666;BMP280;7420;53.574;10.040;2022-11-18T11:38:25;100911.75;;;2.05
14666;BMP280;7420;53.574;10.040;2022-11-18T11:41:01;100915.28;;;1.96
14666;BMP280;7420;53.574;10.040;2022-11-18T11:51:45;100919.38;;;1.98
14666;BMP280;7420;53.574;10.040;2022-11-18T11:57:02;100927.13;;;2.00
14666;BMP280;7420;53.574;10.040;2022-11-18T12:05:05;100928.91;;;2.17
14666;BMP280;7420;53.574;10.040;2022-11-18T12:07:32;100935.19;;;2.06
14666;BMP280;7420;53.574;10.040;2022-11-18T12:10:45;100929.91;;;2.16
14666;BMP280;7420;53.574;10.040;2022-11-18T12:28:08;100937.78;;;2.16
14666;BMP280;7420;53.574;10.040;2022-11-18T12:30:33;100931.84;;;2.31
14666;BMP280;7420;53.574;10.040;2022-11-18T12:32:59;100947.88;;;2.28
14666;BMP280;7420;53.574;10.040;2022-11-18T12:35:25;100949.66;;;2.10
14666;BMP280;7420;53.574;10.040;2022-11-18T12:40:49;100950.81;;;2.25
14666;BMP280;7420;53.574;10.040;2022-11-18T12:52:00;100945.47;;;2.17
14666;BMP280;7420;53.574;10.040;2022-11-18T12:54:32;100944.34;;;2.20
14666;BMP280;7420;53.574;10.040;2022-11-18T12:57:00;100956.78;;;2.18
14666;BMP280;7420;53.574;10.040;2022-11-18T12:59:33;100943.66;;;2.18
14666;BMP280;7420;53.574;10.040;2022-11-18T13:04:36;100958.44;;;2.19
14666;BMP280;7420;53.574;10.040;2022-11-18T13:07:03;100952.88;;;2.04
14666;BMP280;7420;53.574;10.040;2022-11-18T13:09:29;100953.13;;;2.11
14666;BMP280;7420;53.574;10.040;2022-11-18T13:12:05;100952.75;;;2.06
14666;BMP280;7420;53.574;10.040;2022-11-18T13:14:33;100954.09;;;2.10
14666;BMP280;7420;53.574;10.040;2022-11-18T13:17:29;100963.31;;;2.14
14666;BMP280;7420;53.574;10.040;2022-11-18T13:20:22;100971.47;;;2.11
14666;BMP280;7420;53.574;10.040;2022-11-18T13:22:51;100976.09;;;2.17
14666;BMP280;7420;53.574;10.040;2022-11-18T13:25:35;100977.53;;;2.11
14666;BMP280;7420;53.574;10.040;2022-11-18T13:28:03;100979.25;;;2.03
14666;BMP280;7420;53.574;10.040;2022-11-18T13:30:31;100986.38;;;2.10
14666;BMP280;7420;53.574;10.040;2022-11-18T13:32:57;100981.13;;;2.10
14666;BMP280;7420;53.574;10.040;2022-11-18T13:35:23;100985.56;;;2.10
14666;BMP280;7420;53.574;10.040;2022-11-18T13:37:56;100983.00;;;2.18
14666;BMP280;7420;53.574;10.040;2022-11-18T13:40:28;100990.59;;;2.38
14666;BMP280;7420;53.574;10.040;2022-11-18T13:42:54;100997.94;;;2.17
14666;BMP280;7420;53.574;10.040;2022-11-18T13:45:20;100994.56;;;2.24
14666;BMP280;7420;53.574;10.040;2022-11-18T13:47:49;100994.19;;;2.20
14666;BMP280;7420;53.574;10.040;2022-11-18T13:55:20;101004.84;;;2.35
14666;BMP280;7420;53.574;10.040;2022-11-18T13:57:51;101012.72;;;2.35
14666;BMP280;7420;53.574;10.040;2022-11-18T14:00:21;101011.22;;;2.33
14666;BMP280;7420;53.574;10.040;2022-11-18T14:02:48;101008.66;;;2.41
14666;BMP280;7420;53.574;10.040;2022-11-18T14:05:17;101011.66;;;2.28
14666;BMP280;7420;53.574;10.040;2022-11-18T14:07:52;101013.59;;;2.26
14666;BMP280;7420;53.574;10.040;2022-11-18T14:10:19;101013.66;;;2.17
14666;BMP280;7420;53.574;10.040;2022-11-18T14:12:56;101012.09;;;2.07
14666;BMP280;7420;53.574;10.040;2022-11-18T14:17:55;101021.56;;;1.90
14666;BMP280;7420;53.574;10.040;2022-11-18T14:20:20;101029.22;;;2.01
14666;BMP280;7420;53.574;10.040;2022-11-18T14:22:46;101029.47;;;2.08
14666;BMP280;7420;53.574;10.040;2022-11-18T14:27:39;101038.97;;;1.82
14666;BMP280;7420;53.574;10.040;2022-11-18T14:33:09;101040.72;;;1.91
14666;BMP280;7420;53.574;10.040;2022-11-18T14:35:34;101041.97;;;1.87
14666;BMP280;7420;53.574;10.040;2022-11-18T14:38:00;101053.94;;;1.72
14666;BMP280;7420;53.574;10.040;2022-11-18T14:40:25;101058.50;;;1.70
14666;BMP280;7420;53.574;10.040;2022-11-18T14:42:50;101050.59;;;1.79
14666;BMP280;7420;53.574;10.040;2022-11-18T14:45:15;101060.66;;;1.74
14666;BMP280;7420;53.574;10.040;2022-11-18T14:47:41;101071.88;;;1.67
14666;BMP280;7420;53.574;10.040;2022-11-18T14:50:12;101061.72;;;1.54
14666;BMP280;7420;53.574;10.040;2022-11-18T14:52:38;101065.16;;;1.55
14666;BMP280;7420;53.574;10.040;2022-11-18T14:55:03;101075.50;;;1.47
14666;BMP280;7420;53.574;10.040;2022-11-18T14:57:29;101073.56;;;1.49
14666;BMP280;7420;53.574;10.040;2022-11-18T14:59:54;101069.19;;;1.49
14666;BMP280;7420;53.574;10.040;2022-11-18T15:02:19;101071.06;;;1.57
14666;BMP280;7420;53.574;10.040;2022-11-18T15:04:44;101066.69;;;1.48
14666;BMP280;7420;53.574;10.040;2022-11-18T15:07:11;101074.72;;;1.37
14666;BMP280;7420;53.574;10.040;2022-11-18T15:09:37;101076.94;;;1.32
14666;BMP280;7420;53.574;10.040;2022-11-18T15:12:03;101078.88;;;1.30
14666;BMP280;7420;53.574;10.040;2022-11-18T15:14:28;101088.25;;;1.23
14666;BMP280;7420;53.574;10.040;2022-11-18T15:16:54;101093.22;;;1.26
14666;BMP280;7420;53.574;10.040;2022-11-18T15:19:19;101094.72;;;1.19
14666;BMP280;7420;53.574;10.040;2022-11-18T15:21:45;101103.00;;;1.05
14666;BMP280;7420;53.574;10.040;2022-11-18T15:24:10;101103.69;;;1.07
14666;BMP280;7420;53.574;10.040;2022-11-18T15:26:40;101095.84;;;1.07
14666;BMP280;7420;53.574;10.040;2022-11-18T15:29:05;101097.66;;;0.97
14666;BMP280;7420;53.574;10.040;2022-11-18T15:31:30;101103.72;;;0.98
14666;BMP280;7420;53.574;10.040;2022-11-18T15:33:56;101102.91;;;0.97
14666;BMP280;7420;53.574;10.040;2022-11-18T15:36:24;101108.69;;;0.91
14666;BMP280;7420;53.574;10.040;2022-11-18T15:38:50;101111.56;;;0.88
14666;BMP280;7420;53.574;10.040;2022-11-18T15:41:17;101111.16;;;0.83
14666;BMP280;7420;53.574;10.040;2022-11-18T15:43:43;101123.13;;;0.76
14666;BMP280;7420;53.574;10.040;2022-11-18T15:46:08;101118.84;;;0.75
14666;BMP280;7420;53.574;10.040;2022-11-18T15:48:34;101118.16;;;0.73
14666;BMP280;7420;53.574;10.040;2022-11-18T15:50:59;101122.44;;;0.74
14666;BMP280;7420;53.574;10.040;2022-11-18T15:53:24;101121.59;;;0.64
14666;BMP280;7420;53.574;10.040;2022-11-18T15:55:49;101121.03;;;0.61
14666;BMP280;7420;53.574;10.040;2022-11-18T15:58:15;101130.25;;;0.55
14666;BMP280;7420;53.574;10.040;2022-11-18T16:00:40;101138.66;;;0.49